sensor_id;sensor_type;location;lat;lon;timestamp;pressure;altitude;pressure_sealevel;temperature;humidity
32761;BME280;19126;47.472;7.850;2022-07-04T00:01:27;96835.09;;;18.68;26.40
32761;BME280;19126;47.472;7.850;2022-07-04T00:03:54;96835.28;;;18.66;27.83
32761;BME280;19126;47.472;7.850;2022-07-04T00:06:22;96837.94;;;18.66;28.28
32761;BME280;19126;47.472;7.850;2022-07-04T00:08:50;96832.88;;;18.65;27.71
32761;BME280;19126;47.472;7.850;2022-07-04T00:11:17;96839.22;;;18.64;27.24
32761;BME280;19126;47.472;7.850;2022-07-04T00:13:44;96835.72;;;18.63;26.42
32761;BME280;19126;47.472;7.850;2022-07-04T00:16:11;96854.59;;;18.62;25.99
32761;BME280;19126;47.472;7.850;2022-07-04T00:18:39;96865.69;;;18.58;25.81
32761;BME280;19126;47.472;7.850;2022-07-04T00:21:06;96855.88;;;18.52;26.38
32761;BME280;19126;47.472;7.850;2022-07-04T00:23:33;96838.53;;;18.50;25.98
32761;BME280;19126;47.472;7.850;2022-07-04T00:26:02;96816.22;;;18.51;25.59
32761;BME280;19126;47.472;7.850;2022-07-04T00:28:29;96803.72;;;18.51;24.45
32761;BME280;19126;47.472;7.850;2022-07-04T00:30:56;96806.97;;;18.53;23.18
32761;BME280;19126;47.472;7.850;2022-07-04T00:33:23;96820.25;;;18.53;22.45
32761;BME280;19126;47.472;7.850;2022-07-04T00:35:50;96837.66;;;18.56;22.00
32761;BME280;19126;47.472;7.850;2022-07-04T00:38:17;96838.47;;;18.56;20.06
32761;BME280;19126;47.472;7.850;2022-07-04T00:40:45;96839.50;;;18.55;18.79
32761;BME280;19126;47.472;7.850;2022-07-04T00:43:21;96854.19;;;18.58;17.00
32761;BME280;19126;47.472;7.850;2022-07-04T00:45:49;96855.81;;;18.59;17.04
32761;BME280;19126;47.472;7.850;2022-07-04T00:48:16;96846.47;;;18.56;16.53
32761;BME280;19126;47.472;7.850;2022-07-04T00:50:45;96840.91;;;18.58;16.08
32761;BME280;19126;47.472;7.850;2022-07-04T00:53:14;96823.53;;;18.55;16.48
32761;BME280;19126;47.472;7.850;2022-07-04T00:55:41;96833.75;;;18.58;18.16
32761;BME280;19126;47.472;7.850;2022-07-04T00:58:09;96826.81;;;18.57;19.56
32761;BME280;19126;47.472;7.850;2022-07-04T01:00:39;96836.03;;;18.55;21.36
32761;BME280;19126;47.472;7.850;2022-07-04T01:03:06;96849.53;;;18.53;22.87
32761;BME280;19126;47.472;7.850;2022-07-04T01:05:34;96864.69;;;18.53;25.01
32761;BME280;19126;47.472;7.850;2022-07-04T01:08:01;96861.44;;;18.51;24.54
32761;BME280;19126;47.472;7.850;2022-07-04T01:10:30;96874.56;;;18.45;22.50
32761;BME280;19126;47.472;7.850;2022-07-04T01:12:57;96879.91;;;18.45;20.19
32761;BME280;19126;47.472;7.850;2022-07-04T01:15:24;96873.75;;;18.45;18.51
32761;BME280;19126;47.472;7.850;2022-07-04T01:17:53;96881.09;;;18.50;16.70
32761;BME280;19126;47.472;7.850;2022-07-04T01:20:21;96912.41;;;18.48;15.39
32761;BME280;19126;47.472;7.850;2022-07-04T01:22:49;96918.53;;;18.48;15.18
32761;BME280;19126;47.472;7.850;2022-07-04T01:25:16;96916.91;;;18.47;13.78
32761;BME280;19126;47.472;7.850;2022-07-04T01:27:44;96923.25;;;18.46;15.28
32761;BME280;19126;47.472;7.850;2022-07-04T01:30:11;96910.78;;;18.47;15.58
32761;BME280;19126;47.472;7.850;2022-07-04T01:32:39;96916.31;;;18.45;15.23
32761;BME280;19126;47.472;7.850;2022-07-04T01:35:07;96933.09;;;18.45;14.12
32761;BME280;19126;47.472;7.850;2022-07-04T01:37:38;96936.13;;;18.49;13.04
32761;BME280;19126;47.472;7.850;2022-07-04T01:40:07;96911.81;;;18.45;11.59
32761;BME280;19126;47.472;7.850;2022-07-04T01:42:34;96922.81;;;18.49;9.76
32761;BME280;19126;47.472;7.850;2022-07-04T01:45:02;96930.81;;;18.49;8.08
32761;BME280;19126;47.472;7.850;2022-07-04T01:47:29;96961.69;;;18.50;7.00
32761;BME280;19126;47.472;7.850;2022-07-04T01:49:56;96985.03;;;18.48;6.11
32761;BME280;19126;47.472;7.850;2022-07-04T01:52:24;96984.44;;;18.46;5.80
32761;BME280;19126;47.472;7.850;2022-07-04T01:54:53;96988.19;;;18.38;6.63
32761;BME280;19126;47.472;7.850;2022-07-04T01:57:20;96999.88;;;18.30;7.04
32761;BME280;19126;47.472;7.850;2022-07-04T01:59:47;97005.63;;;18.27;7.31
32761;BME280;19126;47.472;7.850;2022-07-04T02:02:32;97024.47;;;18.26;7.49
32761;BME280;19126;47.472;7.850;2022-07-04T02:04:59;97028.75;;;18.27;7.49
32761;BME280;19126;47.472;7.850;2022-07-04T02:07:26;97032.22;;;18.27;7.40
32761;BME280;19126;47.472;7.850;2022-07-04T02:09:54;97033.25;;;18.26;7.14
32761;BME280;19126;47.472;7.850;2022-07-04T02:12:22;97041.84;;;18.28;7.31
32761;BME280;19126;47.472;7.850;2022-07-04T02:15:08;97035.28;;;18.31;6.55
32761;BME280;19126;47.472;7.850;2022-07-04T02:17:35;97036.09;;;18.31;7.21
32761;BME280;19126;47.472;7.850;2022-07-04T02:20:03;97041.41;;;18.31;6.05
32761;BME280;19126;47.472;7.850;2022-07-04T02:22:32;97036.69;;;18.34;5.37
32761;BME280;19126;47.472;7.850;2022-07-04T02:25:00;97031.41;;;18.27;5.50
32761;BME280;19126;47.472;7.850;2022-07-04T02:27:29;97024.66;;;18.24;6.17
32761;BME280;19126;47.472;7.850;2022-07-04T02:29:56;97033.25;;;18.26;5.94
32761;BME280;19126;47.472;7.850;2022-07-04T02:32:24;97041.47;;;18.25;6.17
32761;BME280;19126;47.472;7.850;2022-07-04T02:34:51;97035.53;;;18.23;5.86
32761;BME280;19126;47.472;7.850;2022-07-04T02:37:19;97035.53;;;18.23;5.47
32761;BME280;19126;47.472;7.850;2022-07-04T02:39:46;97021.41;;;18.22;5.01
32761;BME280;19126;47.472;7.850;2022-07-04T02:42:14;97010.59;;;18.17;5.09
32761;BME280;19126;47.472;7.850;2022-07-04T02:44:42;96995.69;;;18.16;6.34
32761;BME280;19126;47.472;7.850;2022-07-04T02:47:09;96981.34;;;18.17;7.30
32761;BME280;19126;47.472;7.850;2022-07-04T02:49:38;96967.84;;;18.19;7.22
32761;BME280;19126;47.472;7.850;2022-07-04T02:52:06;96948.66;;;18.16;6.88
32761;BME280;19126;47.472;7.850;2022-07-04T02:54:33;96934.34;;;18.11;6.86
32761;BME280;19126;47.472;7.850;2022-07-04T02:57:00;96931.94;;;18.02;7.29
32761;BME280;19126;47.472;7.850;2022-07-04T02:59:29;96925.41;;;17.98;7.33
32761;BME280;19126;47.472;7.850;2022-07-04T03:01:56;96909.88;;;17.95;7.62
32761;BME280;19126;47.472;7.850;2022-07-04T03:04:23;96895.41;;;17.91;7.79
32761;BME280;19126;47.472;7.850;2022-07-04T03:06:50;96893.16;;;17.88;7.10
32761;BME280;19126;47.472;7.850;2022-07-04T03:09:17;96887.84;;;17.88;6.97
32761;BME280;19126;47.472;7.850;2022-07-04T03:11:44;96886.22;;;17.87;7.03
32761;BME280;19126;47.472;7.850;2022-07-04T03:14:12;96876.06;;;17.77;7.22
32761;BME280;19126;47.472;7.850;2022-07-04T03:16:40;96894.69;;;17.77;7.42
32761;BME280;19126;47.472;7.850;2022-07-04T03:19:07;96901.63;;;17.78;6.92
32761;BME280;19126;47.472;7.850;2022-07-04T03:21:35;96905.31;;;17.77;6.70
32761;BME280;19126;47.472;7.850;2022-07-04T03:24:02;96900.25;;;17.69;6.18
32761;BME280;19126;47.472;7.850;2022-07-04T03:26:31;96887.56;;;17.71;6.14
32761;BME280;19126;47.472;7.850;2022-07-04T03:29:00;96890.63;;;17.68;5.51
32761;BME280;19126;47.472;7.850;2022-07-04T03:31:29;96895.53;;;17.71;5.65
32761;BME280;19126;47.472;7.850;2022-07-04T03:33:57;96889.38;;;17.70;4.88
32761;BME280;19126;47.472;7.850;2022-07-04T03:36:24;96886.53;;;17.72;4.37
32761;BME280;19126;47.472;7.850;2022-07-04T03:38:51;96894.69;;;17.70;3.76
32761;BME280;19126;47.472;7.850;2022-07-04T03:41:18;96886.72;;;17.70;3.54
32761;BME280;19126;47.472;7.850;2022-07-04T03:43:46;96905.13;;;17.72;3.80
32761;BME280;19126;47.472;7.850;2022-07-04T03:46:13;96909.63;;;17.71;2.99
32761;BME280;19126;47.472;7.850;2022-07-04T03:48:40;96908.59;;;17.72;2.76
32761;BME280;19126;47.472;7.850;2022-07-04T03:51:11;96911.25;;;17.72;3.02
32761;BME280;19126;47.472;7.850;2022-07-04T03:53:40;96914.72;;;17.73;2.46
32761;BME280;19126;47.472;7.850;2022-07-04T03:56:07;96912.06;;;17.73;2.65
32761;BME280;19126;47.472;7.850;2022-07-04T03:58:35;96908.41;;;17.67;2.18
32761;BME280;19126;47.472;7.850;2022-07-04T04:01:02;96934.97;;;17.67;2.71
32761;BME280;19126;47.472;7.850;2022-07-04T04:03:30;96957.06;;;17.68;2.40
32761;BME280;19126;47.472;7.850;2022-07-04T04:06:16;96964.19;;;17.67;2.54
32761;BME280;19126;47.472;7.850;2022-07-04T04:08:43;96969.09;;;17.70;2.37
32761;BME280;19126;47.472;7.850;2022-07-04T04:11:10;96984.63;;;17.73;2.58
32761;BME280;19126;47.472;7.850;2022-07-04T04:13:37;96981.16;;;17.73;2.27
32761;BME280;19126;47.472;7.850;2022-07-04T04:16:04;96994.22;;;17.75;2.22
32761;BME280;19126;47.472;7.850;2022-07-04T04:18:32;96998.50;;;17.76;2.47
32761;BME280;19126;47.472;7.850;2022-07-04T04:20:59;97008.31;;;17.75;2.07
32761;BME280;19126;47.472;7.850;2022-07-04T04:23:28;97018.97;;;17.75;2.57
32761;BME280;19126;47.472;7.850;2022-07-04T04:25:55;97027.53;;;17.70;2.25
32761;BME280;19126;47.472;7.850;2022-07-04T04:28:22;97021.63;;;17.68;1.74
32761;BME280;19126;47.472;7.850;2022-07-04T04:30:50;97023.69;;;17.66;2.80
32761;BME280;19126;47.472;7.850;2022-07-04T04:33:17;97022.88;;;17.66;2.73
32761;BME280;19126;47.472;7.850;2022-07-04T04:35:44;97020.22;;;17.66;2.65
32761;BME280;19126;47.472;7.850;2022-07-04T04:38:12;97027.78;;;17.62;3.30
32761;BME280;19126;47.472;7.850;2022-07-04T04:40:40;97025.34;;;17.61;3.52
32761;BME280;19126;47.472;7.850;2022-07-04T04:43:07;97043.94;;;17.61;4.04
32761;BME280;19126;47.472;7.850;2022-07-04T04:45:34;97052.72;;;17.61;3.74
32761;BME280;19126;47.472;7.850;2022-07-04T04:48:02;97054.56;;;17.61;3.85
32761;BME280;19126;47.472;7.850;2022-07-04T04:50:29;97058.03;;;17.61;3.99
32761;BME280;19126;47.472;7.850;2022-07-04T04:52:56;97063.34;;;17.61;3.74
32761;BME280;19126;47.472;7.850;2022-07-04T04:55:23;97068.88;;;17.60;4.00
32761;BME280;19126;47.472;7.850;2022-07-04T04:57:52;97064.34;;;17.60;3.53
32761;BME280;19126;47.472;7.850;2022-07-04T05:00:19;97073.34;;;17.59;3.35
32761;BME280;19126;47.472;7.850;2022-07-04T05:02:47;97060.50;;;17.56;3.26
32761;BME280;19126;47.472;7.850;2022-07-04T05:05:14;97059.28;;;17.52;3.36
32761;BME280;19126;47.472;7.850;2022-07-04T05:07:41;97075.22;;;17.58;3.47
32761;BME280;19126;47.472;7.850;2022-07-04T05:10:09;97073.56;;;17.57;3.09
32761;BME280;19126;47.472;7.850;2022-07-04T05:12:37;97078.66;;;17.59;3.11
32761;BME280;19126;47.472;7.850;2022-07-04T05:15:06;97075.81;;;17.61;2.87
32761;BME280;19126;47.472;7.850;2022-07-04T05:17:34;97062.94;;;17.57;2.98
32761;BME280;19126;47.472;7.850;2022-07-04T05:20:01;97055.41;;;17.54;3.13
32761;BME280;19126;47.472;7.850;2022-07-04T05:22:29;97068.88;;;17.53;3.29
32761;BME280;19126;47.472;7.850;2022-07-04T05:24:56;97071.94;;;17.56;2.73
32761;BME280;19126;47.472;7.850;2022-07-04T05:27:23;97069.06;;;17.58;2.56
32761;BME280;19126;47.472;7.850;2022-07-04T05:29:51;97039.28;;;17.49;2.54
32761;BME280;19126;47.472;7.850;2022-07-04T05:32:20;97040.69;;;17.52;2.49
32761;BME280;19126;47.472;7.850;2022-07-04T05:34:47;97004.31;;;17.52;2.71
32761;BME280;19126;47.472;7.850;2022-07-04T05:37:14;96946.72;;;17.46;2.72
32761;BME280;19126;47.472;7.850;2022-07-04T05:39:41;96917.94;;;17.36;2.74
32761;BME280;19126;47.472;7.850;2022-07-04T05:42:09;96887.34;;;17.27;2.74
32761;BME280;19126;47.472;7.850;2022-07-04T05:44:36;96888.56;;;17.31;2.52
32761;BME280;19126;47.472;7.850;2022-07-04T05:47:03;96870.38;;;17.28;3.33
32761;BME280;19126;47.472;7.850;2022-07-04T05:49:32;96857.09;;;17.35;3.33
32761;BME280;19126;47.472;7.850;2022-07-04T05:51:59;96856.69;;;17.31;3.56
32761;BME280;19126;47.472;7.850;2022-07-04T05:54:26;96847.50;;;17.34;3.79
32761;BME280;19126;47.472;7.850;2022-07-04T05:56:53;96865.44;;;17.38;4.32
32761;BME280;19126;47.472;7.850;2022-07-04T05:59:20;96893.81;;;17.45;4.89
32761;BME280;19126;47.472;7.850;2022-07-04T06:01:48;96941.00;;;17.49;5.37
32761;BME280;19126;47.472;7.850;2022-07-04T06:04:15;96987.75;;;17.57;5.93
32761;BME280;19126;47.472;7.850;2022-07-04T06:06:45;96999.94;;;17.71;5.88
32761;BME280;19126;47.472;7.850;2022-07-04T06:09:12;97003.00;;;17.75;7.60
32761;BME280;19126;47.472;7.850;2022-07-04T06:11:39;97000.97;;;17.77;9.46
32761;BME280;19126;47.472;7.850;2022-07-04T06:14:06;97001.56;;;17.79;10.62
32761;BME280;19126;47.472;7.850;2022-07-04T06:16:33;96995.00;;;17.82;11.48
32761;BME280;19126;47.472;7.850;2022-07-04T06:19:00;96996.00;;;17.87;11.16
32761;BME280;19126;47.472;7.850;2022-07-04T06:21:28;96980.84;;;17.95;10.47
32761;BME280;19126;47.472;7.850;2022-07-04T06:23:56;96967.72;;;18.07;9.24
32761;BME280;19126;47.472;7.850;2022-07-04T06:26:24;96967.03;;;18.18;9.20
32761;BME280;19126;47.472;7.850;2022-07-04T06:28:52;96962.81;;;18.36;8.40
32761;BME280;19126;47.472;7.850;2022-07-04T06:31:19;96951.47;;;18.47;8.47
32761;BME280;19126;47.472;7.850;2022-07-04T06:33:47;96938.75;;;18.56;9.76
32761;BME280;19126;47.472;7.850;2022-07-04T06:36:31;96940.75;;;18.60;13.59
32761;BME280;19126;47.472;7.850;2022-07-04T06:39:01;96944.38;;;18.66;15.96
32761;BME280;19126;47.472;7.850;2022-07-04T06:41:28;96952.97;;;18.68;19.80
32761;BME280;19126;47.472;7.850;2022-07-04T06:43:55;96962.41;;;18.64;25.24
32761;BME280;19126;47.472;7.850;2022-07-04T06:46:22;96968.34;;;18.66;29.43
32761;BME280;19126;47.472;7.850;2022-07-04T06:48:50;96972.84;;;18.66;34.70
32761;BME280;19126;47.472;7.850;2022-07-04T06:51:17;96995.34;;;18.70;39.09
32761;BME280;19126;47.472;7.850;2022-07-04T06:53:44;96998.97;;;18.75;42.54
32761;BME280;19126;47.472;7.850;2022-07-04T06:56:12;96996.84;;;18.84;40.82
32761;BME280;19126;47.472;7.850;2022-07-04T06:58:40;96996.78;;;18.91;41.50
32761;BME280;19126;47.472;7.850;2022-07-04T07:01:07;96984.84;;;19.00;42.07
32761;BME280;19126;47.472;7.850;2022-07-04T07:03:34;96981.78;;;19.22;44.63
32761;BME280;19126;47.472;7.850;2022-07-04T07:06:02;96980.59;;;19.18;51.60
32761;BME280;19126;47.472;7.850;2022-07-04T07:08:29;96979.50;;;19.26;61.30
32761;BME280;19126;47.472;7.850;2022-07-04T07:10:57;96967.69;;;19.71;66.37
32761;BME280;19126;47.472;7.850;2022-07-04T07:13:40;96966.72;;;20.33;71.59
32761;BME280;19126;47.472;7.850;2022-07-04T07:16:07;96963.09;;;20.82;75.04
32761;BME280;19126;47.472;7.850;2022-07-04T07:18:34;96966.09;;;21.09;82.33
32761;BME280;19126;47.472;7.850;2022-07-04T07:21:02;96968.72;;;21.45;88.89
32761;BME280;19126;47.472;7.850;2022-07-04T07:23:29;96964.59;;;21.37;100.00
32761;BME280;19126;47.472;7.850;2022-07-04T07:25:56;96955.41;;;21.86;100.00
32761;BME280;19126;47.472;7.850;2022-07-04T07:28:24;96961.41;;;22.22;100.00
32761;BME280;19126;47.472;7.850;2022-07-04T07:30:52;96956.13;;;22.56;100.00
32761;BME280;19126;47.472;7.850;2022-07-04T07:33:19;96957.16;;;22.89;100.00
32761;BME280;19126;47.472;7.850;2022-07-04T07:35:47;96944.44;;;23.19;100.00
32761;BME280;19126;47.472;7.850;2022-07-04T07:38:14;96941.88;;;23.24;100.00
32761;BME280;19126;47.472;7.850;2022-07-04T07:40:41;96940.84;;;23.75;100.00
32761;BME280;19126;47.472;7.850;2022-07-04T07:43:08;96925.28;;;23.71;98.06
32761;BME280;19126;47.472;7.850;2022-07-04T07:45:35;96920.19;;;23.75;98.36
32761;BME280;19126;47.472;7.850;2022-07-04T07:48:06;96926.72;;;24.07;100.00
32761;BME280;19126;47.472;7.850;2022-07-04T07:50:33;96924.47;;;23.98;100.00
32761;BME280;19126;47.472;7.850;2022-07-04T07:53:00;96912.63;;;23.94;100.00
32761;BME280;19126;47.472;7.850;2022-07-04T07:55:28;96915.03;;;23.91;100.00
32761;BME280;19126;47.472;7.850;2022-07-04T07:57:55;96911.69;;;23.83;100.00
32761;BME280;19126;47.472;7.850;2022-07-04T08:00:24;96918.81;;;23.95;100.00
32761;BME280;19126;47.472;7.850;2022-07-04T08:02:51;96916.78;;;24.02;100.00
32761;BME280;19126;47.472;7.850;2022-07-04T08:05:39;96914.09;;;24.35;100.00
32761;BME280;19126;47.472;7.850;2022-07-04T08:08:06;96910.13;;;23.60;100.00
32761;BME280;19126;47.472;7.850;2022-07-04T08:10:36;96903.19;;;23.64;100.00
32761;BME280;19126;47.472;7.850;2022-07-04T08:13:04;96902.59;;;23.57;100.00
32761;BME280;19126;47.472;7.850;2022-07-04T08:15:31;96901.00;;;23.17;100.00
32761;BME280;19126;47.472;7.850;2022-07-04T08:17:59;96904.28;;;23.02;100.00
32761;BME280;19126;47.472;7.850;2022-07-04T08:20:26;96908.84;;;23.01;100.00
32761;BME280;19126;47.472;7.850;2022-07-04T08:22:55;96906.09;;;23.18;100.00
32761;BME280;19126;47.472;7.850;2022-07-04T08:25:22;96899.69;;;23.19;100.00
32761;BME280;19126;47.472;7.850;2022-07-04T08:27:49;96910.50;;;23.24;100.00
32761;BME280;19126;47.472;7.850;2022-07-04T08:30:17;96914.16;;;23.18;100.00
32761;BME280;19126;47.472;7.850;2022-07-04T08:32:44;96913.72;;;23.04;100.00
32761;BME280;19126;47.472;7.850;2022-07-04T08:35:12;96918.84;;;22.89;100.00
32761;BME280;19126;47.472;7.850;2022-07-04T08:37:39;96918.28;;;22.87;100.00
32761;BME280;19126;47.472;7.850;2022-07-04T08:40:10;96919.28;;;22.63;100.00
32761;BME280;19126;47.472;7.850;2022-07-04T08:42:39;96910.03;;;22.54;100.00
32761;BME280;19126;47.472;7.850;2022-07-04T08:45:07;96915.06;;;23.07;100.00
32761;BME280;19126;47.472;7.850;2022-07-04T08:47:36;96914.06;;;23.13;100.00
32761;BME280;19126;47.472;7.850;2022-07-04T08:50:10;96918.00;;;23.45;100.00
32761;BME280;19126;47.472;7.850;2022-07-04T08:52:41;96918.97;;;23.61;100.00
32761;BME280;19126;47.472;7.850;2022-07-04T08:55:11;96925.25;;;23.94;100.00
32761;BME280;19126;47.472;7.850;2022-07-04T08:57:57;96919.09;;;23.71;98.48
32761;BME280;19126;47.472;7.850;2022-07-04T09:00:42;96917.00;;;23.51;100.00
32761;BME280;19126;47.472;7.850;2022-07-04T09:03:10;96926.59;;;23.47;100.00
32761;BME280;19126;47.472;7.850;2022-07-04T09:05:38;96923.00;;;23.85;97.06
32761;BME280;19126;47.472;7.850;2022-07-04T09:08:05;96919.34;;;24.52;100.00
32761;BME280;19126;47.472;7.850;2022-07-04T09:10:35;96931.44;;;24.54;97.34
32761;BME280;19126;47.472;7.850;2022-07-04T09:13:04;96919.19;;;25.07;96.95
32761;BME280;19126;47.472;7.850;2022-07-04T09:15:33;96915.16;;;25.14;92.22
32761;BME280;19126;47.472;7.850;2022-07-04T09:18:01;96910.56;;;25.05;93.72
32761;BME280;19126;47.472;7.850;2022-07-04T09:20:31;96924.28;;;25.08;89.99
32761;BME280;19126;47.472;7.850;2022-07-04T09:22:58;96926.25;;;24.80;89.60
32761;BME280;19126;47.472;7.850;2022-07-04T09:25:26;96925.34;;;24.64;93.35
32761;BME280;19126;47.472;7.850;2022-07-04T09:27:56;96927.19;;;24.64;92.88
32761;BME280;19126;47.472;7.850;2022-07-04T09:30:27;96930.09;;;24.90;88.08
32761;BME280;19126;47.472;7.850;2022-07-04T09:32:56;96931.28;;;24.71;87.01
32761;BME280;19126;47.472;7.850;2022-07-04T09:35:29;96934.88;;;24.82;89.63
32761;BME280;19126;47.472;7.850;2022-07-04T09:37:59;96924.91;;;25.21;94.68
32761;BME280;19126;47.472;7.850;2022-07-04T09:40:29;96923.47;;;25.56;88.38
32761;BME280;19126;47.472;7.850;2022-07-04T09:43:00;96926.84;;;24.87;82.67
32761;BME280;19126;47.472;7.850;2022-07-04T09:45:28;96921.78;;;24.58;85.26
32761;BME280;19126;47.472;7.850;2022-07-04T09:47:57;96932.75;;;24.19;88.23
32761;BME280;19126;47.472;7.850;2022-07-04T09:50:27;96926.44;;;24.36;92.85
32761;BME280;19126;47.472;7.850;2022-07-04T09:52:56;96930.34;;;24.18;90.08
32761;BME280;19126;47.472;7.850;2022-07-04T09:55:26;96929.75;;;24.48;89.42
32761;BME280;19126;47.472;7.850;2022-07-04T09:57:56;96936.84;;;24.92;93.99
32761;BME280;19126;47.472;7.850;2022-07-04T10:00:27;96935.81;;;25.04;88.81
32761;BME280;19126;47.472;7.850;2022-07-04T10:02:57;96940.69;;;25.07;92.45
32761;BME280;19126;47.472;7.850;2022-07-04T10:05:26;96936.63;;;25.04;90.90
32761;BME280;19126;47.472;7.850;2022-07-04T10:07:57;96939.34;;;25.09;86.48
32761;BME280;19126;47.472;7.850;2022-07-04T10:10:29;96940.59;;;25.39;85.61
32761;BME280;19126;47.472;7.850;2022-07-04T10:12:59;96929.03;;;26.28;87.50
32761;BME280;19126;47.472;7.850;2022-07-04T10:15:28;96934.13;;;26.35;81.48
32761;BME280;19126;47.472;7.850;2022-07-04T10:17:56;96937.66;;;26.41;84.17
32761;BME280;19126;47.472;7.850;2022-07-04T10:20:24;96920.66;;;26.71;86.98
32761;BME280;19126;47.472;7.850;2022-07-04T10:22:51;96923.84;;;26.11;78.47
32761;BME280;19126;47.472;7.850;2022-07-04T10:25:18;96912.28;;;26.11;79.67
32761;BME280;19126;47.472;7.850;2022-07-04T10:27:46;96911.50;;;26.31;82.06
32761;BME280;19126;47.472;7.850;2022-07-04T10:30:16;96918.16;;;25.82;85.31
32761;BME280;19126;47.472;7.850;2022-07-04T10:32:46;96913.34;;;25.89;84.17
32761;BME280;19126;47.472;7.850;2022-07-04T10:35:14;96916.88;;;26.36;85.15
32761;BME280;19126;47.472;7.850;2022-07-04T10:38:02;96921.19;;;26.16;77.47
32761;BME280;19126;47.472;7.850;2022-07-04T10:40:49;96916.00;;;25.84;76.98
32761;BME280;19126;47.472;7.850;2022-07-04T10:44:00;96922.41;;;25.62;80.12
32761;BME280;19126;47.472;7.850;2022-07-04T10:46:34;96913.34;;;25.94;81.68
32761;BME280;19126;47.472;7.850;2022-07-04T10:49:06;96909.03;;;26.03;81.44
32761;BME280;19126;47.472;7.850;2022-07-04T10:51:39;96921.16;;;26.11;82.82
32761;BME280;19126;47.472;7.850;2022-07-04T10:54:12;96922.81;;;26.33;86.20
32761;BME280;19126;47.472;7.850;2022-07-04T10:56:43;96921.19;;;26.47;86.69
32761;BME280;19126;47.472;7.850;2022-07-04T10:59:15;96920.41;;;26.42;84.64
32761;BME280;19126;47.472;7.850;2022-07-04T11:01:50;96912.03;;;26.17;81.35
32761;BME280;19126;47.472;7.850;2022-07-04T11:04:54;96904.97;;;25.96;80.93
32761;BME280;19126;47.472;7.850;2022-07-04T11:07:24;96899.88;;;25.89;85.20
32761;BME280;19126;47.472;7.850;2022-07-04T11:10:21;96907.13;;;25.88;87.72
32761;BME280;19126;47.472;7.850;2022-07-04T11:13:08;96907.97;;;26.10;83.39
32761;BME280;19126;47.472;7.850;2022-07-04T11:16:04;96912.28;;;26.11;83.28
32761;BME280;19126;47.472;7.850;2022-07-04T11:18:49;96910.63;;;25.89;81.12
32761;BME280;19126;47.472;7.850;2022-07-04T11:21:21;96913.06;;;25.96;85.84
32761;BME280;19126;47.472;7.850;2022-07-04T11:23:50;96911.66;;;25.62;85.68
32761;BME280;19126;47.472;7.850;2022-07-04T11:26:20;96905.16;;;25.48;84.29
32761;BME280;19126;47.472;7.850;2022-07-04T11:28:48;96904.50;;;25.25;86.90
32761;BME280;19126;47.472;7.850;2022-07-04T11:31:15;96901.25;;;25.23;89.56
32761;BME280;19126;47.472;7.850;2022-07-04T11:33:44;96912.28;;;25.26;87.28
32761;BME280;19126;47.472;7.850;2022-07-04T11:36:15;96905.09;;;25.42;86.00
32761;BME280;19126;47.472;7.850;2022-07-04T11:38:51;96905.75;;;25.65;85.80
32761;BME280;19126;47.472;7.850;2022-07-04T11:41:20;96897.94;;;25.69;86.69
32761;BME280;19126;47.472;7.850;2022-07-04T11:44:07;96893.06;;;25.55;84.81
32761;BME280;19126;47.472;7.850;2022-07-04T11:47:07;96892.03;;;25.72;84.02
32761;BME280;19126;47.472;7.850;2022-07-04T11:49:34;96885.31;;;25.80;84.17
32761;BME280;19126;47.472;7.850;2022-07-04T11:52:03;96888.56;;;25.87;82.41
32761;BME280;19126;47.472;7.850;2022-07-04T11:54:32;96884.81;;;25.88;81.91
32761;BME280;19126;47.472;7.850;2022-07-04T11:57:16;96885.31;;;25.74;80.43
32761;BME280;19126;47.472;7.850;2022-07-04T11:59:52;96868.06;;;25.60;85.84
32761;BME280;19126;47.472;7.850;2022-07-04T12:02:20;96874.81;;;25.88;83.97
32761;BME280;19126;47.472;7.850;2022-07-04T12:04:47;96863.81;;;26.06;81.09
32761;BME280;19126;47.472;7.850;2022-07-04T12:07:16;96856.31;;;26.18;82.36
32761;BME280;19126;47.472;7.850;2022-07-04T12:09:47;96850.13;;;26.17;81.52
32761;BME280;19126;47.472;7.850;2022-07-04T12:12:15;96864.06;;;25.94;79.76
32761;BME280;19126;47.472;7.850;2022-07-04T12:15:01;96859.19;;;25.75;78.24
32761;BME280;19126;47.472;7.850;2022-07-04T12:17:32;96858.91;;;25.51;81.25
32761;BME280;19126;47.472;7.850;2022-07-04T12:20:03;96834.31;;;25.31;80.80
32761;BME280;19126;47.472;7.850;2022-07-04T12:22:34;96843.28;;;25.48;80.95
32761;BME280;19126;47.472;7.850;2022-07-04T12:25:06;96844.91;;;25.49;81.07
32761;BME280;19126;47.472;7.850;2022-07-04T12:27:34;96848.44;;;25.75;77.18
32761;BME280;19126;47.472;7.850;2022-07-04T12:30:04;96852.50;;;25.98;72.90
32761;BME280;19126;47.472;7.850;2022-07-04T12:32:47;96843.59;;;26.70;76.96
32761;BME280;19126;47.472;7.850;2022-07-04T12:35:48;96863.00;;;26.77;72.18
32761;BME280;19126;47.472;7.850;2022-07-04T12:38:17;96867.88;;;26.65;74.27
32761;BME280;19126;47.472;7.850;2022-07-04T12:40:55;96875.41;;;26.58;74.29
32761;BME280;19126;47.472;7.850;2022-07-04T12:43:25;96863.81;;;26.83;73.92
32761;BME280;19126;47.472;7.850;2022-07-04T12:45:55;96845.25;;;26.61;65.23
32761;BME280;19126;47.472;7.850;2022-07-04T12:48:26;96851.16;;;26.68;69.71
32761;BME280;19126;47.472;7.850;2022-07-04T12:50:54;96853.03;;;26.57;72.16
32761;BME280;19126;47.472;7.850;2022-07-04T12:53:22;96858.47;;;26.42;72.71
32761;BME280;19126;47.472;7.850;2022-07-04T12:55:51;96866.81;;;26.19;72.64
32761;BME280;19126;47.472;7.850;2022-07-04T12:58:18;96869.19;;;25.85;74.47
32761;BME280;19126;47.472;7.850;2022-07-04T13:00:45;96872.94;;;25.73;74.36
32761;BME280;19126;47.472;7.850;2022-07-04T13:03:12;96869.31;;;25.37;73.83
32761;BME280;19126;47.472;7.850;2022-07-04T13:05:40;96864.97;;;25.30;76.61
32761;BME280;19126;47.472;7.850;2022-07-04T13:08:07;96858.97;;;25.08;75.46
32761;BME280;19126;47.472;7.850;2022-07-04T13:10:34;96860.00;;;24.96;75.52
32761;BME280;19126;47.472;7.850;2022-07-04T13:13:03;96866.81;;;24.71;82.17
32761;BME280;19126;47.472;7.850;2022-07-04T13:15:31;96857.78;;;24.45;78.69